CMN5 weather

Manic-5
Quebec, Canada

Public forecast

Using degrees Celsius for public forecast. Weather courtesy of forecast.io.

Closest aviation weather report (METAR) to Manic-5

Closest report is Baie Comeau Airport, 94.7 nm (175.4 km) SSE. Retrieved 2020/06/04 11:00 UTC (34 minutes ago):

CYBC 041100Z AUTO 25009KT 9SM CLR 10/03 A2952 RMK SLP999

Closest aviation forecast (TAF) to Manic-5

Closest forecast is Baie Comeau Airport, 94.7 nm (175.4 km) SSE. Retrieved 2020/06/04 08:00 UTC (4 hours ago):

TAF CYBC 040738Z 0408/0420 25008KT P6SM FEW100 BECMG 0412/0414 22010G20KT FM041600 21015G25KT P6SM BKN060 RMK FCST BASED ON AUTO OBS NXT FCST BY 041400Z